Time;durP1;ratioP1;P1;durP2;ratioP2;P2;SDS_P1;SDS_P2;PMS_P1;PMS_P2;Temp;Humidity;BMP_temperature;BMP_pressure;BME280_temperature;BME280_humidity;BME280_pressure;Samples;Min_cycle;Max_cycle;Signal;HPM_P1;HPM_P2
2020/12/09 00:00:42;;;;;;;12.60;9.65;;;6.40;99.90;;;;;;5117296;27;20192;-72
2020/12/09 00:03:09;;;;;;;14.18;10.25;;;6.40;99.90;;;;;;5111898;28;20196;-72
2020/12/09 00:05:35;;;;;;;14.75;10.73;;;6.40;99.90;;;;;;5123745;27;20232;-72
2020/12/09 00:08:02;;;;;;;12.27;10.27;;;6.40;99.90;;;;;;5130930;27;20203;-72
2020/12/09 00:10:28;;;;;;;14.52;11.48;;;6.30;99.90;;;;;;5131270;27;20196;-72
2020/12/09 00:12:54;;;;;;;14.77;12.38;;;6.30;99.90;;;;;;5131348;27;20195;-71
2020/12/09 00:15:21;;;;;;;11.88;9.77;;;6.30;99.90;;;;;;5112701;28;20196;-72
2020/12/09 00:17:47;;;;;;;10.98;9.35;;;6.30;99.90;;;;;;5116195;28;20203;-72
2020/12/09 00:20:13;;;;;;;11.52;10.30;;;6.30;99.90;;;;;;5123096;27;20587;-72
2020/12/09 00:22:39;;;;;;;14.55;10.48;;;6.40;99.90;;;;;;5114975;28;20707;-71
2020/12/09 00:25:06;;;;;;;13.32;11.48;;;6.40;99.90;;;;;;5133166;27;20207;-72
2020/12/09 00:27:34;;;;;;;11.93;10.30;;;6.30;99.90;;;;;;5114506;27;20236;-72
2020/12/09 00:30:01;;;;;;;13.00;10.55;;;6.40;99.90;;;;;;5118955;28;20196;-73
2020/12/09 00:32:28;;;;;;;15.07;11.93;;;6.40;99.90;;;;;;5132329;27;20691;-73
2020/12/09 00:34:54;;;;;;;12.85;10.43;;;6.30;99.90;;;;;;5125476;27;20205;-72
2020/12/09 00:37:20;;;;;;;13.00;10.15;;;6.30;99.90;;;;;;5113746;28;20188;-73
2020/12/09 00:39:46;;;;;;;15.02;10.75;;;6.30;99.90;;;;;;5124251;27;20228;-73
2020/12/09 00:42:13;;;;;;;14.27;10.07;;;6.30;99.90;;;;;;5125343;27;20191;-72
2020/12/09 00:44:40;;;;;;;13.50;11.25;;;6.30;99.90;;;;;;5135748;27;20198;-72
2020/12/09 00:47:06;;;;;;;14.30;10.95;;;6.30;99.90;;;;;;5136394;27;20227;-72
2020/12/09 00:49:33;;;;;;;17.77;11.35;;;6.30;99.90;;;;;;5120457;27;20211;-72
2020/12/09 00:52:00;;;;;;;17.05;10.68;;;6.20;99.90;;;;;;5130674;27;20197;-72
2020/12/09 00:54:26;;;;;;;11.05;9.73;;;6.20;99.90;;;;;;5115683;28;20203;-72
2020/12/09 00:56:52;;;;;;;12.57;10.70;;;6.30;99.90;;;;;;5116065;28;20201;-72
2020/12/09 00:59:19;;;;;;;12.75;10.77;;;6.20;99.90;;;;;;5115904;27;20632;-72
2020/12/09 01:01:45;;;;;;;13.95;11.02;;;6.30;99.90;;;;;;5136336;27;20620;-73
2020/12/09 01:04:11;;;;;;;16.02;12.02;;;6.20;99.90;;;;;;5134653;27;20203;-73
2020/12/09 01:06:38;;;;;;;11.55;10.32;;;6.20;99.90;;;;;;5134267;27;20208;-73
2020/12/09 01:09:06;;;;;;;14.85;11.13;;;6.20;99.90;;;;;;5135936;27;20192;-73
2020/12/09 01:11:32;;;;;;;13.30;10.50;;;6.20;99.90;;;;;;5117326;27;20193;-73
2020/12/09 01:13:58;;;;;;;11.77;10.15;;;6.20;99.90;;;;;;5115629;28;20199;-73
2020/12/09 01:16:25;;;;;;;15.32;12.35;;;6.20;99.90;;;;;;5113561;28;20212;-73
2020/12/09 01:18:52;;;;;;;12.75;9.90;;;6.20;99.90;;;;;;5130448;27;20203;-73
2020/12/09 01:21:27;;;;;;;13.40;10.48;;;6.10;99.90;;;;;;5118743;27;20199;-73
2020/12/09 01:23:53;;;;;;;13.50;10.80;;;6.20;99.90;;;;;;5115164;27;20184;-73
2020/12/09 01:26:19;;;;;;;12.40;10.52;;;6.20;99.90;;;;;;5115463;28;20220;-73
2020/12/09 01:28:46;;;;;;;14.20;11.82;;;6.20;99.90;;;;;;5115125;28;20197;-73
2020/12/09 01:31:12;;;;;;;15.93;10.45;;;6.10;99.90;;;;;;5130745;27;20223;-73
2020/12/09 01:33:39;;;;;;;15.30;11.25;;;6.10;99.90;;;;;;5126408;27;20659;-73
2020/12/09 01:36:05;;;;;;;12.48;10.70;;;6.10;99.90;;;;;;5115340;28;20533;-73
2020/12/09 01:38:31;;;;;;;16.08;11.40;;;6.00;99.90;;;;;;5115024;27;20267;-73
2020/12/09 01:40:58;;;;;;;12.05;10.48;;;6.00;99.90;;;;;;5128334;27;20193;-73
2020/12/09 01:43:24;;;;;;;13.43;10.88;;;6.00;99.90;;;;;;5118289;27;20193;-73
2020/12/09 01:45:50;;;;;;;12.15;10.20;;;6.10;99.90;;;;;;5120582;27;20212;-73
2020/12/09 01:48:18;;;;;;;13.68;10.63;;;6.10;99.90;;;;;;5127135;27;20208;-73
2020/12/09 01:50:45;;;;;;;12.80;10.35;;;6.10;99.90;;;;;;5125895;27;20206;-73
2020/12/09 01:53:11;;;;;;;14.73;10.35;;;6.10;99.90;;;;;;5135328;27;20231;-73
2020/12/09 01:55:38;;;;;;;13.02;10.45;;;6.10;99.90;;;;;;5135662;27;20191;-73
2020/12/09 01:58:04;;;;;;;13.05;10.52;;;6.10;99.90;;;;;;5133082;27;20192;-72
2020/12/09 02:00:32;;;;;;;15.80;11.30;;;6.10;99.90;;;;;;5122487;27;20197;-73
2020/12/09 02:02:58;;;;;;;13.32;10.75;;;6.00;99.90;;;;;;5131547;27;20200;-72
2020/12/09 02:05:24;;;;;;;15.30;11.32;;;6.00;99.90;;;;;;5135265;27;20528;-72
2020/12/09 02:07:52;;;;;;;13.02;10.85;;;6.00;99.90;;;;;;5128529;27;20228;-72
2020/12/09 02:10:22;;;;;;;12.65;9.52;;;6.00;99.90;;;;;;5115576;27;20204;-72
2020/12/09 02:12:48;;;;;;;12.38;10.05;;;6.10;99.90;;;;;;5114247;28;20262;-72
2020/12/09 02:15:14;;;;;;;12.63;10.38;;;6.10;99.90;;;;;;5114606;27;20197;-71
2020/12/09 02:17:40;;;;;;;17.10;11.60;;;6.10;99.90;;;;;;5115560;27;20180;-72
2020/12/09 02:20:08;;;;;;;13.25;10.73;;;6.10;99.90;;;;;;5116898;27;20201;-73
2020/12/09 02:22:35;;;;;;;13.85;10.80;;;6.10;99.90;;;;;;5114348;28;20197;-73
2020/12/09 02:25:01;;;;;;;15.93;10.90;;;6.00;99.90;;;;;;5114142;28;20545;-73
2020/12/09 02:27:28;;;;;;;16.33;11.23;;;6.00;99.90;;;;;;5114407;27;20517;-72
2020/12/09 02:29:54;;;;;;;14.13;10.88;;;5.90;99.90;;;;;;5118722;27;20197;-72
2020/12/09 02:32:21;;;;;;;14.57;11.25;;;6.00;99.90;;;;;;5113893;28;20197;-72
2020/12/09 02:34:47;;;;;;;13.88;11.02;;;5.90;99.90;;;;;;5114255;27;20201;-72
2020/12/09 02:37:14;;;;;;;11.20;10.10;;;5.90;99.90;;;;;;5113611;27;20193;-72
2020/12/09 02:39:41;;;;;;;13.00;9.70;;;5.90;99.90;;;;;;5117817;27;20235;-72
2020/12/09 02:42:07;;;;;;;14.63;11.23;;;5.90;99.90;;;;;;5119669;27;20203;-72
2020/12/09 02:44:33;;;;;;;13.13;11.40;;;5.90;99.90;;;;;;5130431;27;20197;-72
2020/12/09 02:47:00;;;;;;;15.30;11.98;;;5.90;99.90;;;;;;5113757;28;20217;-72
2020/12/09 02:49:26;;;;;;;13.32;9.85;;;5.90;99.90;;;;;;5123532;27;20266;-72
2020/12/09 02:51:52;;;;;;;13.75;11.07;;;6.00;99.90;;;;;;5114838;27;20510;-72
2020/12/09 02:54:19;;;;;;;14.93;10.38;;;6.00;99.90;;;;;;5113408;28;20792;-71
2020/12/09 02:56:46;;;;;;;11.70;10.07;;;6.00;99.90;;;;;;5113734;27;20196;-72
2020/12/09 02:59:12;;;;;;;15.93;12.00;;;6.00;99.90;;;;;;5129520;27;20200;-72
2020/12/09 03:01:39;;;;;;;13.88;10.63;;;5.90;99.90;;;;;;5131994;27;20215;-72
2020/12/09 03:04:05;;;;;;;15.90;10.65;;;6.00;99.90;;;;;;5133792;27;20215;-72
2020/12/09 03:06:31;;;;;;;17.15;12.02;;;5.90;99.90;;;;;;5126732;27;20255;-72
2020/12/09 03:08:57;;;;;;;16.83;10.75;;;5.90;99.90;;;;;;5114169;27;20645;-72
2020/12/09 03:11:24;;;;;;;16.67;11.75;;;5.90;99.90;;;;;;5113236;28;20192;-73
2020/12/09 03:13:51;;;;;;;13.75;10.90;;;5.90;99.90;;;;;;5113513;27;20201;-72
2020/12/09 03:16:17;;;;;;;15.43;10.13;;;5.90;99.90;;;;;;5113298;28;20228;-72
2020/12/09 03:18:44;;;;;;;13.48;11.23;;;5.90;99.90;;;;;;5123809;27;20203;-72
2020/12/09 03:21:10;;;;;;;14.52;10.52;;;5.90;99.90;;;;;;5133557;27;20196;-72
2020/12/09 03:23:36;;;;;;;14.52;10.02;;;5.90;99.90;;;;;;5121189;27;20192;-72
2020/12/09 03:26:03;;;;;;;11.95;9.63;;;5.90;99.90;;;;;;5113033;27;20291;-72
2020/12/09 03:28:29;;;;;;;12.18;10.27;;;5.90;99.90;;;;;;5125356;27;20188;-73
2020/12/09 03:30:57;;;;;;;13.68;11.27;;;5.90;99.90;;;;;;5120817;27;20200;-73
2020/12/09 03:33:23;;;;;;;14.60;10.73;;;5.90;99.90;;;;;;5113163;28;20200;-72
2020/12/09 03:35:50;;;;;;;12.48;10.00;;;5.80;99.90;;;;;;5120919;27;20772;-72
2020/12/09 03:38:16;;;;;;;12.88;10.20;;;5.80;99.90;;;;;;5122490;27;20238;-72
2020/12/09 03:40:42;;;;;;;14.45;10.18;;;5.80;99.90;;;;;;5112897;28;20203;-73
2020/12/09 03:43:09;;;;;;;14.55;10.63;;;5.80;99.90;;;;;;5112295;28;20232;-72
2020/12/09 03:45:35;;;;;;;13.57;10.52;;;5.80;99.90;;;;;;5130061;27;20196;-72
2020/12/09 03:48:03;;;;;;;12.52;10.85;;;5.80;99.90;;;;;;5124885;27;20221;-73
2020/12/09 03:50:29;;;;;;;14.45;10.13;;;5.90;99.90;;;;;;5112815;28;20211;-72
2020/12/09 03:52:55;;;;;;;11.90;10.50;;;5.90;99.90;;;;;;5112314;28;20204;-72
2020/12/09 03:55:22;;;;;;;12.88;10.77;;;5.90;99.90;;;;;;5112473;28;20189;-72
2020/12/09 03:57:48;;;;;;;12.07;10.75;;;5.80;99.90;;;;;;5111945;28;20212;-72
2020/12/09 04:00:14;;;;;;;13.85;10.90;;;5.80;99.90;;;;;;5112610;28;20203;-72
2020/12/09 04:02:40;;;;;;;13.45;10.45;;;5.80;99.90;;;;;;5112397;28;20204;-72
2020/12/09 04:05:08;;;;;;;13.63;10.55;;;5.80;99.90;;;;;;5124101;27;20215;-72
2020/12/09 04:07:34;;;;;;;16.38;11.27;;;5.80;99.90;;;;;;5130990;27;20212;-72
2020/12/09 04:10:00;;;;;;;12.38;10.85;;;5.90;99.90;;;;;;5122763;27;20192;-72
2020/12/09 04:12:27;;;;;;;10.43;9.32;;;5.80;99.90;;;;;;5111550;28;20211;-72
2020/12/09 04:14:53;;;;;;;15.02;12.27;;;5.80;99.90;;;;;;5118277;28;20204;-72
2020/12/09 04:17:20;;;;;;;14.40;10.30;;;5.80;99.90;;;;;;5112353;28;20197;-72
2020/12/09 04:19:46;;;;;;;14.77;11.32;;;5.80;99.90;;;;;;5112032;28;20658;-72
2020/12/09 04:22:13;;;;;;;14.50;10.07;;;5.80;99.90;;;;;;5112472;28;20212;-72
2020/12/09 04:24:39;;;;;;;11.63;9.65;;;5.80;99.90;;;;;;5118269;28;20203;-72
2020/12/09 04:27:06;;;;;;;12.63;10.05;;;5.80;99.90;;;;;;5112342;28;20213;-72
2020/12/09 04:29:32;;;;;;;14.57;9.57;;;5.80;99.90;;;;;;5112522;28;20536;-72
2020/12/09 04:31:58;;;;;;;14.63;11.55;;;5.80;99.90;;;;;;5117984;28;20219;-71
2020/12/09 04:34:26;;;;;;;14.05;10.48;;;5.80;99.90;;;;;;5132492;27;20203;-71
2020/12/09 04:36:54;;;;;;;15.70;11.15;;;5.80;99.90;;;;;;5124773;27;20207;-71
2020/12/09 04:39:21;;;;;;;14.13;10.43;;;5.80;99.90;;;;;;5132410;27;20227;-71
2020/12/09 04:41:48;;;;;;;14.02;10.52;;;5.80;99.90;;;;;;5115393;28;20261;-73
2020/12/09 04:44:14;;;;;;;12.30;9.50;;;5.80;99.90;;;;;;5111776;28;20201;-72
2020/12/09 04:46:44;;;;;;;13.63;10.00;;;5.80;99.90;;;;;;5113977;28;20216;-73
2020/12/09 04:49:14;;;;;;;11.75;9.85;;;5.80;99.90;;;;;;5132023;27;20208;-72
2020/12/09 04:52:19;;;;;;;12.82;10.20;;;5.80;99.90;;;;;;5111808;28;20196;-72
2020/12/09 04:54:48;;;;;;;11.23;8.55;;;5.70;99.90;;;;;;5110842;28;20226;-72
2020/12/09 04:57:25;;;;;;;12.90;10.00;;;5.80;99.90;;;;;;5111207;28;20213;-73
2020/12/09 04:59:59;;;;;;;13.95;10.68;;;5.80;99.90;;;;;;5111930;28;20187;-72
2020/12/09 05:02:34;;;;;;;12.07;9.30;;;5.80;99.90;;;;;;5111340;28;20196;-72
2020/12/09 05:05:01;;;;;;;10.45;9.02;;;5.80;99.90;;;;;;5117021;28;20198;-72
2020/12/09 05:07:35;;;;;;;12.20;9.50;;;5.80;99.90;;;;;;5128889;28;20227;-72
2020/12/09 05:10:04;;;;;;;12.23;9.73;;;5.80;99.90;;;;;;5131916;27;20187;-72
2020/12/09 05:12:41;;;;;;;10.40;9.30;;;5.80;99.90;;;;;;5132555;27;20211;-71
2020/12/09 05:15:11;;;;;;;11.57;9.60;;;5.80;99.90;;;;;;5115887;27;20198;-71
2020/12/09 05:18:01;;;;;;;12.13;9.50;;;5.80;99.90;;;;;;5111680;28;20195;-71
2020/12/09 05:20:30;;;;;;;10.32;8.95;;;5.80;99.90;;;;;;5111700;28;20204;-71
2020/12/09 05:22:57;;;;;;;11.93;9.88;;;5.90;99.90;;;;;;5127179;27;20523;-71
2020/12/09 05:25:26;;;;;;;12.13;10.65;;;5.80;99.90;;;;;;5118532;27;20632;-72
2020/12/09 05:27:53;;;;;;;12.48;9.55;;;5.80;99.90;;;;;;5115397;28;20760;-72
2020/12/09 05:30:45;;;;;;;12.02;9.60;;;5.90;99.90;;;;;;5115401;28;20196;-72
2020/12/09 05:33:12;;;;;;;12.55;10.40;;;5.90;99.90;;;;;;5133369;27;20192;-73
2020/12/09 05:35:39;;;;;;;12.52;9.88;;;5.80;99.90;;;;;;5116500;27;20189;-72
2020/12/09 05:38:11;;;;;;;11.70;9.50;;;5.80;99.90;;;;;;5114872;28;20193;-73
2020/12/09 05:40:40;;;;;;;12.50;9.82;;;5.80;99.90;;;;;;5115071;27;20636;-73
2020/12/09 05:43:06;;;;;;;13.23;10.00;;;5.80;99.90;;;;;;5114946;27;20197;-73
2020/12/09 05:45:33;;;;;;;13.82;9.57;;;5.80;99.90;;;;;;5133750;27;20350;-72
2020/12/09 05:48:12;;;;;;;11.57;10.35;;;5.80;99.90;;;;;;5128831;27;20294;-73
2020/12/09 05:50:46;;;;;;;13.55;10.50;;;5.80;99.90;;;;;;5116518;27;20200;-73
2020/12/09 05:53:16;;;;;;;10.88;9.20;;;5.80;99.90;;;;;;5135094;27;20203;-73
2020/12/09 05:55:43;;;;;;;11.57;9.63;;;5.80;99.90;;;;;;5115082;27;20185;-73
2020/12/09 05:58:24;;;;;;;14.60;10.27;;;5.80;99.90;;;;;;5114697;27;20204;-72
2020/12/09 06:01:07;;;;;;;12.32;10.10;;;5.80;99.90;;;;;;5130841;27;20563;-73
2020/12/09 06:03:34;;;;;;;10.15;9.00;;;5.80;99.90;;;;;;5133843;27;20271;-73
2020/12/09 06:06:12;;;;;;;13.23;11.25;;;5.80;99.90;;;;;;5126635;27;20204;-73
2020/12/09 06:08:40;;;;;;;12.10;10.82;;;5.80;99.90;;;;;;5114886;27;20200;-73
2020/12/09 06:11:08;;;;;;;14.95;11.68;;;5.80;99.90;;;;;;5114631;28;20196;-73
2020/12/09 06:13:35;;;;;;;13.45;9.95;;;5.80;99.90;;;;;;5115801;27;20197;-73
2020/12/09 06:16:03;;;;;;;14.05;10.65;;;5.80;99.90;;;;;;5129427;27;20676;-73
2020/12/09 06:18:31;;;;;;;11.50;9.52;;;5.80;99.90;;;;;;5132189;27;20200;-73
2020/12/09 06:20:58;;;;;;;11.60;9.90;;;5.80;99.90;;;;;;5133172;27;20223;-71
2020/12/09 06:23:27;;;;;;;13.02;10.20;;;5.80;99.90;;;;;;5135276;27;20206;-73
2020/12/09 06:25:54;;;;;;;13.82;11.23;;;5.80;99.90;;;;;;5122298;27;20666;-73
2020/12/09 06:28:22;;;;;;;13.60;10.73;;;5.80;99.90;;;;;;5114197;27;20916;-73
2020/12/09 06:30:49;;;;;;;13.05;10.50;;;5.90;99.90;;;;;;5114298;28;20197;-72
2020/12/09 06:33:32;;;;;;;11.57;9.65;;;5.90;99.90;;;;;;5114842;27;20189;-72
2020/12/09 06:36:15;;;;;;;14.65;10.48;;;5.90;99.90;;;;;;5114519;27;20188;-72
2020/12/09 06:38:42;;;;;;;18.30;10.27;;;5.90;99.90;;;;;;5113605;28;20314;-72
2020/12/09 06:41:17;;;;;;;10.75;9.75;;;5.80;99.90;;;;;;5117359;27;20189;-72
2020/12/09 06:44:01;;;;;;;14.45;10.80;;;5.80;99.90;;;;;;5114836;27;20195;-76
2020/12/09 06:46:45;;;;;;;14.35;9.40;;;5.90;99.90;;;;;;5113222;27;20223;-71
2020/12/09 06:49:36;;;;;;;12.57;9.10;;;5.80;99.90;;;;;;5129239;27;20202;-71
2020/12/09 06:52:31;;;;;;;11.75;9.27;;;5.80;99.90;;;;;;5134110;27;20216;-71
2020/12/09 06:54:58;;;;;;;12.48;9.10;;;5.80;99.90;;;;;;5113023;28;20197;-72
2020/12/09 06:57:28;;;;;;;12.27;10.15;;;5.80;99.90;;;;;;5113716;28;20584;-72
2020/12/09 07:00:17;;;;;;;13.15;10.98;;;5.80;99.90;;;;;;5113298;28;20239;-72
2020/12/09 07:02:46;;;;;;;12.75;10.07;;;5.80;99.90;;;;;;5113100;28;20601;-72
2020/12/09 07:05:14;;;;;;;11.55;10.15;;;5.80;99.90;;;;;;5121335;27;20532;-72
2020/12/09 07:07:43;;;;;;;12.60;10.55;;;5.80;99.90;;;;;;5133469;27;20652;-72
2020/12/09 07:10:23;;;;;;;11.60;9.02;;;5.80;99.90;;;;;;5133561;27;20204;-73
2020/12/09 07:12:51;;;;;;;9.13;8.23;;;5.80;99.90;;;;;;5129532;27;20198;-73
2020/12/09 07:15:17;;;;;;;12.10;9.40;;;5.80;99.90;;;;;;5128981;27;20647;-73
2020/12/09 07:17:44;;;;;;;12.48;9.85;;;5.80;99.90;;;;;;5125067;27;20189;-72
2020/12/09 07:20:10;;;;;;;11.20;9.63;;;5.80;99.90;;;;;;5112929;28;20287;-73
2020/12/09 07:22:38;;;;;;;13.20;10.35;;;5.80;99.90;;;;;;5131006;27;20218;-73
2020/12/09 07:25:06;;;;;;;11.93;9.18;;;5.70;99.90;;;;;;5130178;27;20193;-73
2020/12/09 07:27:35;;;;;;;12.23;9.23;;;5.70;99.90;;;;;;5113977;27;20591;-73
2020/12/09 07:30:06;;;;;;;11.65;9.23;;;5.70;99.90;;;;;;5113111;28;20245;-73
2020/12/09 07:32:32;;;;;;;10.82;8.50;;;5.80;99.90;;;;;;5112682;28;20212;-73
2020/12/09 07:35:00;;;;;;;13.80;10.20;;;5.80;99.90;;;;;;5112665;28;20208;-73
2020/12/09 07:37:30;;;;;;;16.42;9.75;;;5.80;99.90;;;;;;5133151;27;20192;-73
2020/12/09 07:39:58;;;;;;;13.82;11.02;;;5.70;99.90;;;;;;5120615;27;20248;-73
2020/12/09 07:42:26;;;;;;;12.23;9.90;;;5.70;99.90;;;;;;5113534;27;20203;-73
2020/12/09 07:44:53;;;;;;;15.10;11.30;;;5.80;99.90;;;;;;5112797;27;20711;-73
2020/12/09 07:47:24;;;;;;;13.60;10.07;;;5.80;99.90;;;;;;5127189;27;20235;-73
2020/12/09 07:49:53;;;;;;;11.30;9.90;;;5.80;99.90;;;;;;5124738;27;20192;-73
2020/12/09 07:52:25;;;;;;;11.25;10.10;;;5.80;99.90;;;;;;5113727;27;20192;-73
2020/12/09 07:54:54;;;;;;;15.15;11.63;;;5.80;99.90;;;;;;5112726;28;20276;-73
2020/12/09 07:57:22;;;;;;;13.73;11.35;;;5.80;99.90;;;;;;5113574;28;20608;-73
2020/12/09 07:59:52;;;;;;;13.75;10.40;;;5.80;99.90;;;;;;5112452;28;20197;-72
2020/12/09 08:02:19;;;;;;;11.13;9.30;;;5.80;99.90;;;;;;5130567;27;20191;-72
2020/12/09 08:04:47;;;;;;;12.88;9.82;;;5.80;99.90;;;;;;5119721;27;20188;-72
2020/12/09 08:07:15;;;;;;;15.23;11.15;;;5.80;99.90;;;;;;5130432;27;20207;-72
2020/12/09 08:09:41;;;;;;;14.90;10.57;;;5.90;99.90;;;;;;5131452;27;20207;-72
2020/12/09 08:12:08;;;;;;;16.40;11.10;;;5.90;99.90;;;;;;5112262;28;20192;-73
2020/12/09 08:14:34;;;;;;;12.20;9.85;;;5.90;99.90;;;;;;5120066;28;20192;-72
2020/12/09 08:17:01;;;;;;;15.50;11.60;;;5.80;99.90;;;;;;5128955;27;20199;-72
2020/12/09 08:19:27;;;;;;;12.10;10.52;;;5.80;99.90;;;;;;5113649;28;20189;-72
2020/12/09 08:22:04;;;;;;;13.98;10.75;;;5.80;99.90;;;;;;5121315;27;20262;-72
2020/12/09 08:24:31;;;;;;;14.40;10.75;;;5.80;99.90;;;;;;5111640;28;20200;-72
2020/12/09 08:26:59;;;;;;;18.13;10.77;;;5.80;99.90;;;;;;5111638;28;20252;-72
2020/12/09 08:29:25;;;;;;;17.25;11.48;;;5.90;99.90;;;;;;5111837;28;20572;-72
2020/12/09 08:32:02;;;;;;;16.98;11.93;;;5.80;99.90;;;;;;5130952;27;20207;-72
2020/12/09 08:34:28;;;;;;;13.18;10.77;;;5.90;99.90;;;;;;5131994;27;20180;-72
2020/12/09 08:36:55;;;;;;;15.10;11.65;;;5.80;99.90;;;;;;5125114;27;20192;-72
2020/12/09 08:39:21;;;;;;;12.65;10.85;;;5.90;99.90;;;;;;5123016;28;20238;-72
2020/12/09 08:41:47;;;;;;;13.43;10.75;;;5.90;99.90;;;;;;5123742;27;20188;-72
2020/12/09 08:44:14;;;;;;;14.40;11.15;;;5.90;99.90;;;;;;5132353;27;20644;-72
2020/12/09 08:46:40;;;;;;;13.45;9.85;;;5.90;99.90;;;;;;5115769;27;20193;-72
2020/12/09 08:49:07;;;;;;;12.30;9.45;;;5.80;99.90;;;;;;5125916;28;20196;-72
2020/12/09 08:51:35;;;;;;;12.93;10.80;;;5.90;99.90;;;;;;5129022;27;20196;-72
2020/12/09 08:54:03;;;;;;;13.73;9.70;;;5.90;99.90;;;;;;5131142;27;20196;-73
2020/12/09 08:56:31;;;;;;;12.65;10.60;;;5.80;99.90;;;;;;5111865;28;20241;-73
2020/12/09 08:58:57;;;;;;;13.73;11.63;;;5.90;99.90;;;;;;5115944;27;20202;-73
2020/12/09 09:01:24;;;;;;;16.52;10.27;;;6.00;99.90;;;;;;5116105;27;20628;-73
2020/12/09 09:03:54;;;;;;;13.73;12.13;;;5.90;99.90;;;;;;5115785;27;20212;-74
2020/12/09 09:06:21;;;;;;;15.45;10.40;;;5.90;99.90;;;;;;5130884;27;20546;-73
2020/12/09 09:08:47;;;;;;;22.17;12.25;;;5.90;99.90;;;;;;5133821;27;20257;-73
2020/12/09 09:11:20;;;;;;;12.98;9.70;;;5.90;99.90;;;;;;5124405;27;20194;-73
2020/12/09 09:13:46;;;;;;;14.60;11.73;;;6.00;99.90;;;;;;5131172;27;20188;-73
2020/12/09 09:16:12;;;;;;;12.73;11.02;;;6.00;99.90;;;;;;5127692;27;20192;-73
2020/12/09 09:18:39;;;;;;;14.00;11.25;;;6.00;99.90;;;;;;5116808;27;20197;-73
2020/12/09 09:21:05;;;;;;;13.15;10.90;;;6.00;99.90;;;;;;5129026;27;20197;-73
2020/12/09 09:23:32;;;;;;;17.05;12.50;;;6.00;99.90;;;;;;5136011;27;20192;-73
2020/12/09 09:25:58;;;;;;;11.95;10.40;;;6.00;99.90;;;;;;5123391;27;20656;-73
2020/12/09 09:28:25;;;;;;;14.55;10.95;;;6.00;99.90;;;;;;5130353;27;20795;-73
2020/12/09 09:30:51;;;;;;;12.50;10.00;;;6.00;99.90;;;;;;5131375;27;20532;-75
2020/12/09 09:33:17;;;;;;;11.60;10.40;;;6.00;99.90;;;;;;5119097;27;20219;-73
2020/12/09 09:35:43;;;;;;;14.77;11.32;;;6.00;99.90;;;;;;5115491;27;20185;-73
2020/12/09 09:38:09;;;;;;;12.02;10.32;;;6.00;99.90;;;;;;5115021;28;20197;-73
2020/12/09 09:40:37;;;;;;;18.88;12.32;;;6.00;99.90;;;;;;5124756;27;20398;-73
2020/12/09 09:43:03;;;;;;;13.90;11.05;;;6.00;99.90;;;;;;5130762;27;20535;-73
2020/12/09 09:45:29;;;;;;;13.93;10.68;;;6.00;99.90;;;;;;5122030;27;20192;-73
2020/12/09 09:47:55;;;;;;;14.95;11.73;;;6.00;99.90;;;;;;5135238;27;20230;-73
2020/12/09 09:50:22;;;;;;;15.45;11.02;;;6.00;99.90;;;;;;5123870;27;20804;-73
2020/12/09 09:52:49;;;;;;;13.13;11.05;;;6.00;99.90;;;;;;5116080;27;20196;-73
2020/12/09 09:55:15;;;;;;;13.88;12.07;;;6.00;99.90;;;;;;5114447;28;20203;-73
2020/12/09 09:57:42;;;;;;;16.63;11.43;;;6.10;99.90;;;;;;5114717;27;20197;-73
2020/12/09 10:00:08;;;;;;;14.30;11.85;;;6.10;99.90;;;;;;5129233;27;20527;-73
2020/12/09 10:02:35;;;;;;;13.98;12.02;;;6.10;99.90;;;;;;5131124;27;20192;-73
2020/12/09 10:05:01;;;;;;;15.82;11.35;;;6.10;99.90;;;;;;5134670;27;20633;-73
2020/12/09 10:07:27;;;;;;;16.05;12.63;;;6.10;99.90;;;;;;5128697;27;20645;-73
2020/12/09 10:09:54;;;;;;;12.48;9.70;;;6.10;99.90;;;;;;5113250;28;20227;-73
2020/12/09 10:12:20;;;;;;;15.80;12.00;;;6.10;99.90;;;;;;5118761;27;20192;-73
2020/12/09 10:14:47;;;;;;;15.13;13.23;;;6.10;99.90;;;;;;5127188;27;20196;-73
2020/12/09 10:17:13;;;;;;;19.20;13.18;;;6.20;99.90;;;;;;5126794;27;20199;-73
2020/12/09 10:19:40;;;;;;;17.52;12.57;;;6.20;99.90;;;;;;5128731;27;20196;-73
2020/12/09 10:22:11;;;;;;;16.80;12.75;;;6.20;99.90;;;;;;5134775;27;20531;-73
2020/12/09 10:24:37;;;;;;;20.17;13.35;;;6.20;99.90;;;;;;5132304;27;20651;-73
2020/12/09 10:27:03;;;;;;;14.38;11.80;;;6.20;99.90;;;;;;5114254;27;20298;-73
2020/12/09 10:29:30;;;;;;;22.08;13.52;;;6.20;99.90;;;;;;5114190;28;20196;-73
2020/12/09 10:31:57;;;;;;;16.77;12.95;;;6.20;99.90;;;;;;5129895;27;20196;-73
2020/12/09 10:34:23;;;;;;;21.00;13.32;;;6.20;99.90;;;;;;5124129;27;20201;-73
2020/12/09 10:36:51;;;;;;;19.30;12.18;;;6.20;99.90;;;;;;5131963;27;20189;-73
2020/12/09 10:39:19;;;;;;;20.08;14.38;;;6.20;99.90;;;;;;5129089;27;20794;-73
2020/12/09 10:41:46;;;;;;;13.88;10.23;;;6.20;99.90;;;;;;5125275;27;20193;-73
2020/12/09 10:44:13;;;;;;;21.33;14.57;;;6.20;99.90;;;;;;5113924;28;20202;-73
2020/12/09 10:46:40;;;;;;;16.67;13.05;;;6.20;99.90;;;;;;5117806;27;20192;-72
2020/12/09 10:49:10;;;;;;;17.30;12.70;;;6.20;99.90;;;;;;5121312;27;20223;-72
2020/12/09 10:51:43;;;;;;;14.88;13.32;;;6.30;99.90;;;;;;5130867;27;20233;-72
2020/12/09 10:54:10;;;;;;;21.38;16.38;;;6.30;99.90;;;;;;5134225;27;20204;-73
2020/12/09 10:56:36;;;;;;;16.50;11.88;;;6.30;99.90;;;;;;5134334;27;20204;-74
2020/12/09 10:59:02;;;;;;;23.67;14.27;;;6.30;99.90;;;;;;5123148;27;20209;-73
2020/12/09 11:01:32;;;;;;;18.67;14.10;;;6.30;99.90;;;;;;5114561;27;20201;-73
2020/12/09 11:03:58;;;;;;;19.38;13.43;;;6.30;99.90;;;;;;5116527;27;20275;-71
2020/12/09 11:06:28;;;;;;;19.02;13.55;;;6.30;99.90;;;;;;5125572;27;20197;-72
2020/12/09 11:08:55;;;;;;;19.38;12.32;;;6.30;99.90;;;;;;5113342;27;20208;-71
2020/12/09 11:11:22;;;;;;;19.50;12.57;;;6.30;99.90;;;;;;5116644;27;20254;-72
2020/12/09 11:13:48;;;;;;;16.77;13.32;;;6.30;99.90;;;;;;5121931;27;20196;-70
2020/12/09 11:16:14;;;;;;;18.48;12.95;;;6.30;99.90;;;;;;5113029;28;20195;-70
2020/12/09 11:18:41;;;;;;;19.30;14.95;;;6.30;99.90;;;;;;5113046;28;20630;-71
2020/12/09 11:21:07;;;;;;;17.48;13.88;;;6.30;99.90;;;;;;5122239;27;20196;-71
2020/12/09 11:23:34;;;;;;;18.52;12.88;;;6.30;99.90;;;;;;5124596;27;20210;-74
2020/12/09 11:26:01;;;;;;;18.55;13.65;;;6.30;99.90;;;;;;5131741;27;20529;-72
2020/12/09 11:28:27;;;;;;;16.98;13.18;;;6.30;99.90;;;;;;5116794;27;20209;-70
2020/12/09 11:30:53;;;;;;;17.50;12.73;;;6.40;99.90;;;;;;5112520;28;20192;-71
2020/12/09 11:33:19;;;;;;;18.85;12.90;;;6.40;99.90;;;;;;5111473;28;20197;-72
2020/12/09 11:35:46;;;;;;;16.80;11.93;;;6.30;99.90;;;;;;5113840;27;20200;-71
2020/12/09 11:38:12;;;;;;;16.05;11.75;;;6.40;99.90;;;;;;5120126;27;20226;-70
2020/12/09 11:40:39;;;;;;;14.95;11.80;;;6.30;99.90;;;;;;5119382;27;20185;-71
2020/12/09 11:43:05;;;;;;;18.98;15.18;;;6.40;99.90;;;;;;5120122;27;20196;-72
2020/12/09 11:45:35;;;;;;;19.50;13.65;;;6.40;99.90;;;;;;5126848;27;20204;-71
2020/12/09 11:48:01;;;;;;;19.80;13.82;;;6.40;99.90;;;;;;5133197;27;20268;-72
2020/12/09 11:50:27;;;;;;;18.02;15.02;;;6.40;99.90;;;;;;5125781;27;20207;-71
2020/12/09 11:52:54;;;;;;;16.40;12.50;;;6.40;99.90;;;;;;5123262;27;20204;-69
2020/12/09 11:55:20;;;;;;;19.52;13.88;;;6.40;99.90;;;;;;5122765;27;20201;-70
2020/12/09 11:57:47;;;;;;;21.08;13.85;;;6.40;99.90;;;;;;5112623;28;20703;-70
2020/12/09 12:00:14;;;;;;;19.55;13.88;;;6.40;99.90;;;;;;5123842;27;20192;-70
2020/12/09 12:02:40;;;;;;;17.55;12.95;;;6.30;99.90;;;;;;5130995;27;20192;-73
2020/12/09 12:05:08;;;;;;;14.65;12.00;;;6.30;99.90;;;;;;5119261;27;20208;-73
2020/12/09 12:07:36;;;;;;;19.17;13.57;;;6.40;99.90;;;;;;5129519;27;20204;-71
2020/12/09 12:10:03;;;;;;;16.30;13.70;;;6.40;99.90;;;;;;5112537;28;20284;-71
2020/12/09 12:12:29;;;;;;;20.10;13.80;;;6.40;99.90;;;;;;5123098;28;20192;-71
2020/12/09 12:14:57;;;;;;;17.13;13.32;;;6.40;99.90;;;;;;5120760;27;20523;-71
2020/12/09 12:17:23;;;;;;;16.52;12.40;;;6.40;99.90;;;;;;5122043;27;20212;-70
2020/12/09 12:19:49;;;;;;;16.98;13.30;;;6.40;99.90;;;;;;5112352;28;20620;-70
2020/12/09 12:22:15;;;;;;;15.65;11.63;;;6.40;99.90;;;;;;5112550;28;20214;-72
2020/12/09 12:24:42;;;;;;;19.40;13.60;;;6.40;99.90;;;;;;5117669;28;20196;-72
2020/12/09 12:27:08;;;;;;;20.00;14.13;;;6.40;99.90;;;;;;5128387;27;20200;-72
2020/12/09 12:29:34;;;;;;;20.55;13.73;;;6.40;99.90;;;;;;5119578;28;20497;-72
2020/12/09 12:32:01;;;;;;;21.15;14.95;;;6.40;99.90;;;;;;5119428;27;20215;-69
2020/12/09 12:34:27;;;;;;;17.92;13.13;;;6.40;99.90;;;;;;5123694;27;20192;-69
2020/12/09 12:36:56;;;;;;;20.50;13.52;;;6.40;99.90;;;;;;5128945;27;20203;-69
2020/12/09 12:39:22;;;;;;;24.85;14.32;;;6.40;99.90;;;;;;5136656;27;20231;-70
2020/12/09 12:41:49;;;;;;;22.42;15.15;;;6.40;99.90;;;;;;5136018;27;20567;-69